Terminal Aerodrome Forecast
Issued by NWS

Home | Current Version | Previous Version | Text Only | Print | Product List | Glossary On
Versions: 1 2 3 4 5 6 7 8 9 10 11 12 13
000
FTUS46 KSTO 281700
TAFSAC
TAF
KSAC 281731Z 2818/2918 VRB02KT 5SM BR FEW250
     FM281900 32006KT P6SM FEW250
     FM290800 VRB02KT 4SM BR SKC
      TEMPO 2912/2916 2SM BR=

USA.gov is the U.S. government's official web portal to all federal, state and local government web resources and services.